createdAt,value
2018-03-29T00:01:41.682Z,79.80
2018-03-29T00:04:11.230Z,79.70
2018-03-29T00:06:40.012Z,79.70
2018-03-29T00:09:08.425Z,79.70
2018-03-29T00:11:38.477Z,80.10
2018-03-29T00:14:07.972Z,80.20
2018-03-29T00:16:37.132Z,80.70
2018-03-29T00:19:05.498Z,80.60
2018-03-29T00:21:33.913Z,80.60
2018-03-29T00:24:03.054Z,80.50
2018-03-29T00:26:31.439Z,80.50
2018-03-29T00:28:59.830Z,80.70
2018-03-29T00:31:28.199Z,81.20
2018-03-29T00:33:56.585Z,81.10
2018-03-29T00:36:24.944Z,80.40
2018-03-29T00:38:53.354Z,80.30
2018-03-29T00:41:21.724Z,78.80
2018-03-29T00:43:50.162Z,78.50
2018-03-29T00:46:18.556Z,77.80
2018-03-29T00:48:46.927Z,77.30
2018-03-29T00:51:15.321Z,76.60
2018-03-29T00:53:45.361Z,77.00
2018-03-29T00:56:13.743Z,77.10
2018-03-29T00:58:42.137Z,77.80
2018-03-29T01:01:10.549Z,77.80
2018-03-29T01:03:39.160Z,77.70
2018-03-29T01:06:07.533Z,77.80
2018-03-29T01:08:36.684Z,78.10
2018-03-29T01:11:05.094Z,77.90
2018-03-29T01:13:33.464Z,77.60
2018-03-29T01:16:01.979Z,77.60
2018-03-29T01:18:30.354Z,77.40
2018-03-29T01:20:58.733Z,77.40
2018-03-29T01:23:27.126Z,77.90
2018-03-29T01:25:55.494Z,77.90
2018-03-29T01:28:24.177Z,77.20
2018-03-29T01:30:52.556Z,77.20
2018-03-29T01:33:20.935Z,77.40
2018-03-29T01:35:49.723Z,77.50
2018-03-29T01:38:18.110Z,77.80
2018-03-29T01:40:46.789Z,77.60
2018-03-29T01:43:15.197Z,77.50
2018-03-29T01:45:43.570Z,77.80
2018-03-29T01:48:11.954Z,78.20
2018-03-29T01:50:40.329Z,78.30
2018-03-29T01:53:08.985Z,78.60
2018-03-29T01:55:37.350Z,78.90
2018-03-29T01:58:05.717Z,79.20
2018-03-29T02:00:34.140Z,79.50
2018-03-29T02:03:02.522Z,79.80
2018-03-29T02:05:31.130Z,80.10
2018-03-29T02:08:00.261Z,79.90
2018-03-29T02:10:28.637Z,79.90
2018-03-29T02:12:57.025Z,79.80
2018-03-29T02:15:25.395Z,80.40
2018-03-29T02:17:53.802Z,81.70
2018-03-29T02:20:22.181Z,80.50
2018-03-29T02:22:51.150Z,80.00
2018-03-29T02:25:20.068Z,79.70
2018-03-29T02:27:50.036Z,80.30
2018-03-29T02:30:20.019Z,80.60
2018-03-29T02:32:48.915Z,80.40
2018-03-29T02:35:18.081Z,81.20
2018-03-29T02:37:46.903Z,80.00
2018-03-29T02:40:15.822Z,79.30
2018-03-29T02:42:44.769Z,78.20
2018-03-29T02:45:14.461Z,78.20
2018-03-29T02:47:43.347Z,78.80
2018-03-29T02:50:11.716Z,78.70
2018-03-29T02:52:40.143Z,78.60
2018-03-29T02:55:08.534Z,78.60
2018-03-29T02:57:37.675Z,77.90
2018-03-29T03:00:06.100Z,77.90
2018-03-29T03:02:36.767Z,77.60
2018-03-29T03:05:05.191Z,77.90
2018-03-29T03:07:33.573Z,78.20
2018-03-29T03:10:02.431Z,78.40
2018-03-29T03:12:30.805Z,78.30
2018-03-29T03:14:59.170Z,78.50
2018-03-29T03:17:27.563Z,78.10
2018-03-29T03:19:55.953Z,77.40
2018-03-29T03:22:24.392Z,76.80
2018-03-29T03:24:52.762Z,76.30
2018-03-29T03:27:22.207Z,75.80
2018-03-29T03:29:50.574Z,75.80
2018-03-29T03:32:18.987Z,75.70
2018-03-29T03:34:47.385Z,75.20
2018-03-29T03:37:15.753Z,75.10
2018-03-29T03:39:44.149Z,74.70
2018-03-29T03:42:13.295Z,74.10
2018-03-29T03:44:41.985Z,74.10
2018-03-29T03:47:10.350Z,73.80
2018-03-29T03:49:38.721Z,73.00
2018-03-29T03:52:07.105Z,72.20
2018-03-29T03:54:35.470Z,72.50
2018-03-29T03:57:03.868Z,72.10
2018-03-29T03:59:32.233Z,71.80
2018-03-29T04:02:00.726Z,71.70
2018-03-29T04:04:29.089Z,71.70
2018-03-29T04:06:57.457Z,71.30
2018-03-29T04:09:25.859Z,71.30
2018-03-29T04:11:54.353Z,71.20
2018-03-29T04:14:22.760Z,71.10
2018-03-29T04:16:51.885Z,71.50
2018-03-29T04:19:21.235Z,71.30
2018-03-29T04:21:49.598Z,71.30
2018-03-29T04:24:17.962Z,71.30
2018-03-29T04:26:46.360Z,71.60
2018-03-29T04:29:14.773Z,71.80
2018-03-29T04:31:43.173Z,71.80
2018-03-29T04:34:12.314Z,72.10
2018-03-29T04:36:40.895Z,72.10
2018-03-29T04:39:09.263Z,72.00
2018-03-29T04:41:37.635Z,72.00
2018-03-29T04:44:06.035Z,72.10
2018-03-29T04:46:34.399Z,72.30
2018-03-29T04:49:02.804Z,72.20
2018-03-29T04:51:31.181Z,72.40
2018-03-29T04:54:00.071Z,72.40
2018-03-29T04:56:28.461Z,73.40
2018-03-29T04:58:56.828Z,72.70
2018-03-29T05:01:25.217Z,72.40
2018-03-29T05:03:53.590Z,72.40
2018-03-29T05:06:21.996Z,72.40
2018-03-29T05:08:50.369Z,72.00
2018-03-29T05:11:19.114Z,71.90
2018-03-29T05:13:47.485Z,72.50
2018-03-29T05:16:15.883Z,72.40
2018-03-29T05:18:44.343Z,71.80
2018-03-29T05:21:12.720Z,71.30
2018-03-29T05:23:41.121Z,71.50
2018-03-29T05:26:09.768Z,71.10
2018-03-29T05:28:38.374Z,70.70
2018-03-29T05:31:06.738Z,70.40
2018-03-29T05:33:35.133Z,69.80
2018-03-29T05:36:03.528Z,69.70
2018-03-29T05:38:31.894Z,69.10
2018-03-29T05:41:00.305Z,68.90
2018-03-29T05:43:28.686Z,68.70
2018-03-29T05:45:57.547Z,68.40
2018-03-29T05:48:25.922Z,68.30
2018-03-29T05:50:54.349Z,68.10
2018-03-29T05:53:23.511Z,67.90
2018-03-29T05:55:51.882Z,67.80
2018-03-29T05:58:20.278Z,67.40
2018-03-29T06:00:48.662Z,68.20
2018-03-29T06:03:17.070Z,67.70
2018-03-29T06:05:46.206Z,67.40
2018-03-29T06:08:14.579Z,67.40
2018-03-29T06:10:42.963Z,66.60
2018-03-29T06:13:11.333Z,66.10
2018-03-29T06:15:39.728Z,66.10
2018-03-29T06:18:08.099Z,65.10
2018-03-29T06:20:36.694Z,65.00
2018-03-29T06:23:05.061Z,63.80
2018-03-29T06:25:33.462Z,64.10
2018-03-29T06:28:01.854Z,63.80
2018-03-29T06:30:30.229Z,63.20
2018-03-29T06:32:58.617Z,62.90
2018-03-29T06:35:33.145Z,63.00
2018-03-29T06:38:01.961Z,62.60
2018-03-29T06:40:30.335Z,62.10
2018-03-29T06:42:58.706Z,61.90
2018-03-29T06:45:27.107Z,62.20
2018-03-29T06:47:55.519Z,61.50
2018-03-29T06:50:23.919Z,61.50
2018-03-29T06:52:53.057Z,61.00
2018-03-29T06:55:21.754Z,60.80
2018-03-29T06:57:50.122Z,60.60
2018-03-29T07:00:18.485Z,59.40
2018-03-29T07:02:46.890Z,59.20
2018-03-29T07:05:15.271Z,58.80
2018-03-29T07:07:43.671Z,59.50
2018-03-29T07:10:12.106Z,59.00
2018-03-29T07:12:40.526Z,58.40
2018-03-29T07:15:09.478Z,56.90
2018-03-29T07:17:37.854Z,56.10
2018-03-29T07:20:06.262Z,55.60
2018-03-29T07:22:34.638Z,55.00
2018-03-29T07:25:03.031Z,54.90
2018-03-29T07:27:31.401Z,54.70
2018-03-29T07:29:59.788Z,55.00
2018-03-29T07:32:28.165Z,54.80
2018-03-29T07:34:56.540Z,54.70
2018-03-29T07:37:24.929Z,54.80
2018-03-29T07:39:53.305Z,55.00
2018-03-29T07:42:21.702Z,54.80
2018-03-29T07:44:50.065Z,54.10
2018-03-29T07:47:18.625Z,53.40
2018-03-29T07:49:46.997Z,53.80
2018-03-29T07:52:15.360Z,53.60
2018-03-29T07:54:43.762Z,52.70
2018-03-29T07:57:12.127Z,52.10
2018-03-29T07:59:40.519Z,52.00
2018-03-29T08:02:08.894Z,51.80
2018-03-29T08:04:37.678Z,51.10
2018-03-29T08:07:06.045Z,51.70
2018-03-29T08:09:34.422Z,51.20
2018-03-29T08:12:02.824Z,50.40
2018-03-29T08:14:31.194Z,50.80
2018-03-29T08:16:59.593Z,50.30
2018-03-29T08:19:27.985Z,50.20
2018-03-29T08:21:56.421Z,49.00
2018-03-29T08:24:24.799Z,47.20
2018-03-29T08:26:53.182Z,46.20
2018-03-29T08:29:21.593Z,45.20
2018-03-29T08:31:49.966Z,44.40
2018-03-29T08:34:18.363Z,43.20
2018-03-29T08:36:46.741Z,42.40
2018-03-29T08:39:15.394Z,43.40
2018-03-29T08:41:43.780Z,43.50
2018-03-29T08:44:12.162Z,42.10
2018-03-29T08:46:40.630Z,44.10
2018-03-29T08:49:09.015Z,44.30
2018-03-29T08:51:37.423Z,44.40
2018-03-29T08:54:05.803Z,44.50
2018-03-29T08:56:34.551Z,44.10
2018-03-29T08:59:03.047Z,43.90
2018-03-29T09:01:31.422Z,43.30
2018-03-29T09:03:59.819Z,43.50
2018-03-29T09:06:28.190Z,44.50
2018-03-29T09:08:56.574Z,42.40
2018-03-29T09:11:24.947Z,43.60
2018-03-29T09:13:53.384Z,41.90
2018-03-29T09:16:21.758Z,42.50
2018-03-29T09:18:50.130Z,43.30
2018-03-29T09:21:18.555Z,42.50
2018-03-29T09:23:46.934Z,43.20
2018-03-29T09:26:15.332Z,43.70
2018-03-29T09:28:43.702Z,44.20
2018-03-29T09:31:12.491Z,44.70
2018-03-29T09:33:40.866Z,44.60
2018-03-29T09:36:09.241Z,44.20
2018-03-29T09:38:37.646Z,43.40
2018-03-29T09:41:06.798Z,44.10
2018-03-29T09:43:35.198Z,44.00
2018-03-29T09:46:03.583Z,43.40
2018-03-29T09:48:32.182Z,42.20
2018-03-29T09:51:01.336Z,43.30
2018-03-29T09:53:29.771Z,43.20
2018-03-29T09:55:58.962Z,43.50
2018-03-29T09:58:28.111Z,43.80
2018-03-29T10:01:02.184Z,43.80
2018-03-29T10:03:30.571Z,44.50
2018-03-29T10:06:04.867Z,44.60
2018-03-29T10:08:34.016Z,43.90
2018-03-29T10:11:02.714Z,43.90
2018-03-29T10:13:31.092Z,44.00
2018-03-29T10:15:59.470Z,43.60
2018-03-29T10:18:27.857Z,44.50
2018-03-29T10:20:56.238Z,44.20
2018-03-29T10:23:24.642Z,43.80
2018-03-29T10:25:53.795Z,44.20
2018-03-29T10:28:22.297Z,44.10
2018-03-29T10:30:50.678Z,43.90
2018-03-29T10:33:19.062Z,44.30
2018-03-29T10:35:47.571Z,44.30
2018-03-29T10:38:15.922Z,44.30
2018-03-29T10:40:45.092Z,42.30
2018-03-29T10:43:13.475Z,42.00
2018-03-29T10:45:42.276Z,40.10
2018-03-29T10:48:10.663Z,40.10
2018-03-29T10:50:39.030Z,40.20
2018-03-29T10:53:07.447Z,37.70
2018-03-29T10:55:35.847Z,37.90
2018-03-29T10:58:04.278Z,38.50
2018-03-29T11:00:32.722Z,39.00
2018-03-29T11:03:01.403Z,38.10
2018-03-29T11:05:29.787Z,38.30
2018-03-29T11:07:58.195Z,38.50
2018-03-29T11:10:26.667Z,37.00
2018-03-29T11:12:55.048Z,36.50
2018-03-29T11:15:23.454Z,33.30
2018-03-29T11:17:52.647Z,28.60
2018-03-29T11:20:22.000Z,28.80
2018-03-29T11:22:50.378Z,28.80
2018-03-29T11:25:18.865Z,28.10
2018-03-29T11:27:47.279Z,28.80
2018-03-29T11:30:15.653Z,28.80
2018-03-29T11:32:44.046Z,30.00
2018-03-29T11:35:13.222Z,31.40
2018-03-29T11:37:41.982Z,31.40
2018-03-29T11:40:10.367Z,31.60
2018-03-29T11:42:38.743Z,32.40
2018-03-29T11:45:07.153Z,30.90
2018-03-29T11:47:35.533Z,29.50
2018-03-29T11:50:03.951Z,29.60
2018-03-29T11:52:32.326Z,29.40
2018-03-29T11:55:01.038Z,28.30
2018-03-29T11:57:29.417Z,27.90
2018-03-29T11:59:57.930Z,26.60
2018-03-29T12:02:26.350Z,26.10
2018-03-29T12:04:54.730Z,26.70
2018-03-29T12:07:23.143Z,27.50
2018-03-29T12:09:51.526Z,28.20
2018-03-29T12:12:20.088Z,29.00
2018-03-29T12:14:48.578Z,28.40
2018-03-29T12:17:16.967Z,28.80
2018-03-29T12:19:46.255Z,29.00
2018-03-29T12:22:14.643Z,29.00
2018-03-29T12:24:43.051Z,30.90
2018-03-29T12:27:11.426Z,30.70
2018-03-29T12:29:39.967Z,31.50
2018-03-29T12:32:08.349Z,30.30
2018-03-29T12:34:36.761Z,30.00
2018-03-29T12:37:05.195Z,28.30
2018-03-29T12:39:33.588Z,29.10
2018-03-29T12:42:02.010Z,28.80
2018-03-29T12:44:31.154Z,29.00
2018-03-29T12:46:59.629Z,29.00
2018-03-29T12:49:28.006Z,29.20
2018-03-29T12:51:56.394Z,29.80
2018-03-29T12:54:24.883Z,30.20
2018-03-29T13:00:03.765Z,32.80
2018-03-29T13:02:32.145Z,32.70
2018-03-29T13:05:00.633Z,32.90
2018-03-29T13:07:29.780Z,33.80
2018-03-29T13:09:58.519Z,33.80
2018-03-29T13:12:26.914Z,32.30
2018-03-29T13:14:55.295Z,31.90
2018-03-29T13:17:23.695Z,32.10
2018-03-29T13:19:52.070Z,32.50
2018-03-29T13:22:20.478Z,31.90
2018-03-29T13:24:48.870Z,32.50
2018-03-29T13:27:17.415Z,32.10
2018-03-29T13:29:45.797Z,32.20
2018-03-29T13:32:14.185Z,32.00
2018-03-29T13:34:42.586Z,32.50
2018-03-29T13:37:10.962Z,31.10
2018-03-29T13:39:39.372Z,30.90
2018-03-29T13:42:08.520Z,32.30
2018-03-29T13:44:36.939Z,32.20
2018-03-29T13:47:06.086Z,32.90
2018-03-29T13:49:34.497Z,32.80
2018-03-29T13:52:02.902Z,32.80
2018-03-29T13:54:32.076Z,34.00
2018-03-29T13:57:00.493Z,33.90
2018-03-29T13:59:28.870Z,33.90
2018-03-29T14:01:57.482Z,33.40
2018-03-29T14:04:25.867Z,34.10
2018-03-29T14:06:54.251Z,34.20
2018-03-29T14:09:22.697Z,34.20
2018-03-29T14:11:51.074Z,35.20
2018-03-29T14:14:19.478Z,35.20
2018-03-29T14:16:47.860Z,36.70
2018-03-29T14:19:16.542Z,35.60
2018-03-29T14:21:44.924Z,34.60
2018-03-29T14:24:13.302Z,34.50
2018-03-29T14:26:41.816Z,34.70
2018-03-29T14:29:10.194Z,35.20
2018-03-29T14:31:38.610Z,34.00
2018-03-29T14:34:06.986Z,34.40
2018-03-29T14:36:35.701Z,34.30
2018-03-29T14:39:04.114Z,34.30
2018-03-29T14:41:33.267Z,35.00
2018-03-29T14:44:02.499Z,34.90
2018-03-29T14:46:30.896Z,34.80
2018-03-29T14:48:59.298Z,35.60
2018-03-29T14:51:27.676Z,35.60
2018-03-29T14:53:56.163Z,36.10
2018-03-29T14:56:24.559Z,36.40
2018-03-29T14:58:52.936Z,37.40
2018-03-29T15:01:21.329Z,38.30
2018-03-29T15:03:49.719Z,38.10
2018-03-29T15:06:18.152Z,38.80
2018-03-29T15:08:46.537Z,38.10
2018-03-29T15:11:14.911Z,38.10
2018-03-29T15:13:43.337Z,38.40
2018-03-29T15:16:11.726Z,39.30
2018-03-29T15:18:40.127Z,38.80
2018-03-29T15:21:09.275Z,39.80
2018-03-29T15:23:37.681Z,39.70
2018-03-29T15:26:06.055Z,41.60
2018-03-29T15:28:34.484Z,42.70
2018-03-29T15:31:03.631Z,46.20
2018-03-29T15:33:32.006Z,46.20
2018-03-29T15:36:00.393Z,46.40
2018-03-29T15:38:28.775Z,46.20
2018-03-29T15:40:57.324Z,47.20
2018-03-29T15:43:25.710Z,47.80
2018-03-29T15:45:54.098Z,48.70
2018-03-29T15:48:22.599Z,49.00
2018-03-29T15:50:50.993Z,49.30
2018-03-29T15:53:20.170Z,49.80
2018-03-29T15:55:48.547Z,49.70
2018-03-29T15:58:17.210Z,49.60
2018-03-29T16:00:45.587Z,49.60
2018-03-29T16:03:13.962Z,50.10
2018-03-29T16:05:42.371Z,50.70
2018-03-29T16:08:10.750Z,50.30
2018-03-29T16:10:39.132Z,50.00
2018-03-29T16:13:07.503Z,49.70
2018-03-29T16:15:36.177Z,49.50
2018-03-29T16:18:04.569Z,49.20
2018-03-29T16:20:32.946Z,49.70
2018-03-29T16:23:01.353Z,49.30
2018-03-29T16:25:30.498Z,49.30
2018-03-29T16:27:58.973Z,49.30
2018-03-29T16:30:27.353Z,49.20
2018-03-29T16:32:55.750Z,49.10
2018-03-29T16:35:24.143Z,49.30
2018-03-29T16:37:52.547Z,49.10
2018-03-29T16:40:21.694Z,48.90
2018-03-29T16:42:50.374Z,48.80
2018-03-29T16:45:18.759Z,48.80
2018-03-29T16:47:47.133Z,49.00
2018-03-29T16:50:15.539Z,49.00
2018-03-29T16:52:43.920Z,49.20
2018-03-29T16:55:12.325Z,49.60
2018-03-29T16:57:40.705Z,49.10
2018-03-29T17:00:09.119Z,48.80
2018-03-29T17:02:37.494Z,48.40
2018-03-29T17:05:05.869Z,48.30
2018-03-29T17:07:34.278Z,48.30
2018-03-29T17:10:02.664Z,48.10
2018-03-29T17:12:31.082Z,48.50
2018-03-29T17:14:59.463Z,49.00
2018-03-29T17:17:28.100Z,49.50
2018-03-29T17:19:56.484Z,49.50
2018-03-29T17:22:24.935Z,48.80
2018-03-29T17:24:53.341Z,49.80
2018-03-29T17:27:21.711Z,51.20
2018-03-29T17:29:50.102Z,52.30
2018-03-29T17:32:18.592Z,51.80
2018-03-29T17:34:47.162Z,51.50
2018-03-29T17:37:16.298Z,51.40
2018-03-29T17:39:44.682Z,51.50
2018-03-29T17:42:13.069Z,51.30
2018-03-29T17:44:41.451Z,51.90
2018-03-29T17:47:09.930Z,51.70
2018-03-29T17:49:38.353Z,51.70
2018-03-29T17:52:07.034Z,52.20
2018-03-29T17:54:35.311Z,53.30
2018-03-29T17:57:04.466Z,53.90
2018-03-29T17:59:32.887Z,53.80
2018-03-29T18:02:01.290Z,54.70
2018-03-29T18:04:30.462Z,54.80
2018-03-29T18:06:58.969Z,54.80
2018-03-29T18:09:28.326Z,55.30
2018-03-29T18:11:56.705Z,55.30
2018-03-29T18:14:25.085Z,56.00
2018-03-29T18:16:54.776Z,56.00
2018-03-29T18:19:23.713Z,56.40
2018-03-29T18:21:52.103Z,56.50
2018-03-29T18:24:21.238Z,56.70
2018-03-29T18:26:50.570Z,56.70
2018-03-29T18:29:22.142Z,57.30
2018-03-29T18:31:51.340Z,57.90
2018-03-29T18:34:21.381Z,58.10
2018-03-29T18:36:49.755Z,58.00
2018-03-29T18:39:20.153Z,58.80
2018-03-29T18:41:49.053Z,58.80
2018-03-29T18:44:18.576Z,59.10
2018-03-29T18:46:48.342Z,59.50
2018-03-29T18:49:18.687Z,59.50
2018-03-29T18:51:47.098Z,59.50
2018-03-29T18:54:15.503Z,59.50
2018-03-29T18:56:43.904Z,59.60
2018-03-29T18:59:12.369Z,59.80
2018-03-29T19:01:41.276Z,60.10
2018-03-29T19:04:10.295Z,60.70
2018-03-29T19:06:40.441Z,61.50
2018-03-29T19:09:08.805Z,60.80
2018-03-29T19:11:39.156Z,60.80
2018-03-29T19:14:07.558Z,60.80
2018-03-29T19:16:35.933Z,60.80
2018-03-29T19:19:04.350Z,60.80
2018-03-29T19:21:32.718Z,61.00
2018-03-29T19:24:01.386Z,61.60
2018-03-29T19:26:31.824Z,60.90
2018-03-29T19:29:01.030Z,61.30
2018-03-29T19:31:30.329Z,61.30
2018-03-29T19:33:58.889Z,61.00
2018-03-29T19:36:29.438Z,61.30
2018-03-29T19:38:58.992Z,62.00
2018-03-29T19:41:28.298Z,61.10
2018-03-29T19:43:58.119Z,61.40
2018-03-29T19:46:27.831Z,61.50
2018-03-29T19:48:56.291Z,61.50
2018-03-29T19:51:24.701Z,61.70
2018-03-29T19:53:53.679Z,61.70
2018-03-29T19:56:22.485Z,61.80
2018-03-29T19:58:51.069Z,62.00
2018-03-29T20:01:20.317Z,61.20
2018-03-29T20:03:50.383Z,61.50
2018-03-29T20:06:19.094Z,61.50
2018-03-29T20:08:48.125Z,61.60
2018-03-29T20:11:17.015Z,61.30
2018-03-29T20:13:45.439Z,61.40
2018-03-29T20:16:15.821Z,61.00
2018-03-29T20:18:45.193Z,60.90
2018-03-29T20:21:15.896Z,61.30
2018-03-29T20:23:45.564Z,61.30
2018-03-29T20:26:15.550Z,61.00
2018-03-29T20:28:45.624Z,60.80
2018-03-29T20:31:14.208Z,60.60
2018-03-29T20:33:43.170Z,60.80
2018-03-29T20:36:12.411Z,61.20
2018-03-29T20:38:40.875Z,61.60
2018-03-29T20:41:09.746Z,61.00
2018-03-29T20:43:38.640Z,61.30
2018-03-29T20:46:07.150Z,61.10
2018-03-29T20:48:36.720Z,61.80
2018-03-29T20:51:05.358Z,61.80
2018-03-29T20:53:33.779Z,61.80
2018-03-29T20:56:02.347Z,62.10
2018-03-29T20:58:32.228Z,62.50
2018-03-29T21:01:00.692Z,62.50
2018-03-29T21:03:29.486Z,62.20
2018-03-29T21:05:57.894Z,62.00
2018-03-29T21:08:26.258Z,61.80
2018-03-29T21:10:54.651Z,61.70
2018-03-29T21:13:23.271Z,61.80
2018-03-29T21:15:52.905Z,62.10
2018-03-29T21:18:21.450Z,62.00
2018-03-29T21:20:52.417Z,62.70
2018-03-29T21:23:22.851Z,63.10
2018-03-29T21:25:52.518Z,63.10
2018-03-29T21:28:22.878Z,63.20
2018-03-29T21:30:53.849Z,63.10
2018-03-29T21:33:24.293Z,63.10
2018-03-29T21:35:54.572Z,63.10
2018-03-29T21:38:24.510Z,63.10
2018-03-29T21:40:53.897Z,63.20
2018-03-29T21:43:24.228Z,63.90
2018-03-29T21:45:52.758Z,63.80
2018-03-29T21:48:21.898Z,64.30
2018-03-29T21:50:50.319Z,64.30
2018-03-29T21:53:19.006Z,64.60
2018-03-29T21:55:47.398Z,65.20
2018-03-29T21:58:16.541Z,65.00
2018-03-29T22:00:45.127Z,65.00
2018-03-29T22:03:13.502Z,64.70
2018-03-29T22:05:41.956Z,65.00
2018-03-29T22:08:10.342Z,65.20
2018-03-29T22:10:38.718Z,65.00
2018-03-29T22:13:07.102Z,64.90
2018-03-29T22:15:35.535Z,64.60
2018-03-29T22:18:04.053Z,64.90
2018-03-29T22:20:32.434Z,65.00
2018-03-29T22:23:01.125Z,65.30
2018-03-29T22:25:29.568Z,65.90
2018-03-29T22:27:58.714Z,66.80
2018-03-29T22:30:27.121Z,66.80
2018-03-29T22:33:05.157Z,66.60
2018-03-29T22:35:34.289Z,66.50
2018-03-29T22:38:02.669Z,66.20
2018-03-29T22:40:34.118Z,65.70
2018-03-29T22:43:02.513Z,65.70
2018-03-29T22:45:30.909Z,65.40
2018-03-29T22:48:01.378Z,65.40
2018-03-29T22:50:29.791Z,65.50
2018-03-29T22:52:59.736Z,65.50
2018-03-29T22:55:29.831Z,65.50
2018-03-29T22:57:59.911Z,65.60
2018-03-29T23:00:38.049Z,65.60
2018-03-29T23:03:24.275Z,65.60
2018-03-29T23:06:05.662Z,66.00
2018-03-29T23:08:41.958Z,65.90
2018-03-29T23:11:19.530Z,66.30
2018-03-29T23:13:55.799Z,66.60
2018-03-29T23:16:35.174Z,66.60
2018-03-29T23:19:09.471Z,66.60
2018-03-29T23:21:38.811Z,66.70
2018-03-29T23:24:15.547Z,66.70
2018-03-29T23:26:55.003Z,66.90
2018-03-29T23:29:34.960Z,66.70
2018-03-29T23:44:43.011Z,66.80
2018-03-29T23:47:37.494Z,67.50
2018-03-29T23:50:28.578Z,67.40
2018-03-29T23:53:19.724Z,67.20
2018-03-29T23:56:12.805Z,67.10
2018-03-29T23:59:05.336Z,66.90
